createdAt,value
2017-08-23T00:00:35.229Z,5.80
2017-08-23T00:01:35.210Z,7.30
2017-08-23T00:02:35.186Z,5.40
2017-08-23T00:03:35.165Z,7.90
2017-08-23T00:04:35.144Z,8.80
2017-08-23T00:05:35.118Z,7.60
2017-08-23T00:06:35.096Z,6.70
2017-08-23T00:07:35.074Z,6.60
2017-08-23T00:08:35.052Z,5.90
2017-08-23T00:09:35.031Z,6.00
2017-08-23T00:10:35.008Z,5.90
2017-08-23T00:11:34.987Z,7.70
2017-08-23T00:12:34.967Z,6.10
2017-08-23T00:13:34.943Z,7.10
2017-08-23T00:14:34.921Z,6.80
2017-08-23T00:15:34.901Z,7.20
2017-08-23T00:16:34.879Z,5.60
2017-08-23T00:17:34.858Z,6.10
2017-08-23T00:18:34.832Z,6.90
2017-08-23T00:19:34.813Z,6.10
2017-08-23T00:20:34.789Z,5.70
2017-08-23T00:21:34.771Z,5.60
2017-08-23T00:22:34.744Z,6.30
2017-08-23T00:23:34.724Z,7.00
2017-08-23T00:24:34.703Z,5.70
2017-08-23T00:25:34.679Z,7.40
2017-08-23T00:26:34.656Z,5.70
2017-08-23T00:27:34.635Z,9.10
2017-08-23T00:28:34.616Z,5.20
2017-08-23T00:29:34.591Z,6.40
2017-08-23T00:30:34.571Z,7.40
2017-08-23T00:31:34.549Z,6.80
2017-08-23T00:32:34.525Z,7.00
2017-08-23T00:33:34.507Z,5.90
2017-08-23T00:34:34.480Z,5.80
2017-08-23T00:35:34.461Z,6.20
2017-08-23T00:36:34.440Z,5.80
2017-08-23T00:37:34.415Z,5.30
2017-08-23T00:38:34.394Z,6.00
2017-08-23T00:39:34.374Z,7.30
2017-08-23T00:40:34.349Z,5.50
2017-08-23T00:41:34.335Z,5.10
2017-08-23T00:42:34.307Z,5.30
2017-08-23T00:43:34.285Z,5.00
2017-08-23T00:44:34.265Z,5.70
2017-08-23T00:45:34.242Z,5.00
2017-08-23T00:46:34.220Z,5.20
2017-08-23T00:47:34.195Z,7.90
2017-08-23T00:48:34.174Z,4.60
2017-08-23T00:49:34.151Z,5.50
2017-08-23T00:50:34.129Z,5.80
2017-08-23T00:51:34.110Z,5.20
2017-08-23T00:52:34.085Z,6.50
2017-08-23T00:53:34.067Z,5.70
2017-08-23T00:54:34.041Z,5.40
2017-08-23T00:55:34.018Z,5.30
2017-08-23T00:56:33.996Z,5.50
2017-08-23T00:57:33.975Z,5.10
2017-08-23T00:58:33.954Z,5.80
2017-08-23T00:59:33.933Z,5.70
2017-08-23T01:00:33.909Z,5.20
2017-08-23T01:01:33.890Z,7.10
2017-08-23T01:02:33.868Z,4.50
2017-08-23T01:03:33.844Z,5.00
2017-08-23T01:04:33.824Z,6.20
2017-08-23T01:05:33.799Z,5.20
2017-08-23T01:06:33.779Z,7.40
2017-08-23T01:07:33.758Z,5.90
2017-08-23T01:08:33.736Z,6.00
2017-08-23T01:09:33.715Z,5.50
2017-08-23T01:10:33.692Z,5.40
2017-08-23T01:11:33.667Z,4.50
2017-08-23T01:12:33.649Z,8.20
2017-08-23T01:13:33.631Z,6.40
2017-08-23T01:14:33.601Z,6.10
2017-08-23T01:15:33.585Z,5.70
2017-08-23T01:16:33.557Z,6.00
2017-08-23T01:17:33.541Z,4.20
2017-08-23T01:18:33.516Z,4.20
2017-08-23T01:19:33.491Z,5.30
2017-08-23T01:20:33.469Z,5.50
2017-08-23T01:21:33.447Z,4.80
2017-08-23T01:22:33.425Z,5.10
2017-08-23T01:23:33.403Z,5.70
2017-08-23T01:24:33.386Z,5.30
2017-08-23T01:25:33.365Z,4.70
2017-08-23T01:26:33.336Z,5.30
2017-08-23T01:27:33.319Z,5.20
2017-08-23T01:28:33.291Z,5.60
2017-08-23T01:29:33.277Z,4.90
2017-08-23T01:30:33.248Z,6.10
2017-08-23T01:31:33.225Z,5.50
2017-08-23T01:32:33.207Z,5.10
2017-08-23T01:33:33.187Z,6.30
2017-08-23T01:34:33.163Z,6.00
2017-08-23T01:35:33.141Z,5.80
2017-08-23T01:36:33.124Z,5.50
2017-08-23T01:37:33.098Z,4.30
2017-08-23T01:38:33.072Z,4.80
2017-08-23T01:39:33.052Z,5.20
2017-08-23T01:40:33.028Z,6.80
2017-08-23T01:41:33.010Z,6.00
2017-08-23T01:42:32.988Z,8.90
2017-08-23T01:43:32.965Z,4.40
2017-08-23T01:44:32.945Z,6.20
2017-08-23T01:45:32.922Z,4.80
2017-08-23T01:46:32.901Z,5.90
2017-08-23T01:47:32.877Z,6.30
2017-08-23T01:48:32.855Z,6.50
2017-08-23T01:49:32.835Z,5.30
2017-08-23T01:50:32.810Z,4.60
2017-08-23T01:51:32.788Z,5.00
2017-08-23T01:52:32.765Z,5.10
2017-08-23T01:53:32.748Z,7.50
2017-08-23T01:54:32.720Z,4.80
2017-08-23T01:55:32.699Z,5.40
2017-08-23T01:56:32.681Z,6.10
2017-08-23T01:57:32.659Z,4.70
2017-08-23T01:58:32.633Z,4.00
2017-08-23T01:59:32.613Z,5.10
2017-08-23T02:00:32.593Z,5.50
2017-08-23T02:01:32.570Z,7.00
2017-08-23T02:02:32.546Z,5.10
2017-08-23T02:03:32.525Z,4.80
2017-08-23T02:04:32.504Z,5.10
2017-08-23T02:05:32.482Z,4.80
2017-08-23T02:06:32.462Z,6.30
2017-08-23T02:07:32.439Z,5.50
2017-08-23T02:08:32.416Z,3.80
2017-08-23T02:09:32.394Z,6.20
2017-08-23T02:10:32.370Z,5.30
2017-08-23T02:11:32.348Z,4.70
2017-08-23T02:12:32.330Z,4.70
2017-08-23T02:13:32.306Z,5.50
2017-08-23T02:14:32.282Z,4.80
2017-08-23T02:15:32.261Z,5.50
2017-08-23T02:16:32.238Z,6.30
2017-08-23T02:17:32.217Z,4.10
2017-08-23T02:18:32.194Z,5.50
2017-08-23T02:19:32.173Z,5.10
2017-08-23T02:20:32.154Z,6.30
2017-08-23T02:21:32.133Z,6.00
2017-08-23T02:22:32.109Z,5.90
2017-08-23T02:23:32.093Z,4.80
2017-08-23T02:24:32.066Z,7.40
2017-08-23T02:25:32.040Z,4.40
2017-08-23T02:26:32.018Z,5.50
2017-08-23T02:27:31.998Z,4.90
2017-08-23T02:28:31.978Z,4.60
2017-08-23T02:29:31.964Z,5.60
2017-08-23T02:30:31.930Z,5.50
2017-08-23T02:31:31.907Z,4.40
2017-08-23T02:32:31.887Z,5.20
2017-08-23T02:33:31.865Z,5.50
2017-08-23T02:34:31.844Z,4.50
2017-08-23T02:35:31.824Z,5.70
2017-08-23T02:36:31.803Z,6.90
2017-08-23T02:37:31.778Z,5.80
2017-08-23T02:38:31.756Z,5.30
2017-08-23T02:39:31.736Z,6.20
2017-08-23T02:40:31.711Z,4.00
2017-08-23T02:41:31.690Z,4.30
2017-08-23T02:42:31.665Z,4.20
2017-08-23T02:43:31.648Z,4.20
2017-08-23T02:44:31.625Z,4.80
2017-08-23T02:45:31.602Z,4.40
2017-08-23T02:46:31.578Z,4.20
2017-08-23T02:47:31.559Z,5.40
2017-08-23T02:48:31.540Z,5.00
2017-08-23T02:49:31.516Z,4.80
2017-08-23T02:50:31.492Z,4.80
2017-08-23T02:51:31.473Z,4.40
2017-08-23T02:52:31.452Z,3.60
2017-08-23T02:53:31.426Z,4.60
2017-08-23T02:54:31.409Z,4.90
2017-08-23T02:55:31.386Z,5.80
2017-08-23T02:56:31.360Z,4.50
2017-08-23T02:57:31.339Z,6.50
2017-08-23T02:58:31.316Z,4.60
2017-08-23T02:59:31.295Z,5.30
2017-08-23T03:00:31.273Z,4.70
2017-08-23T03:01:31.252Z,4.20
2017-08-23T03:02:31.229Z,3.10
2017-08-23T03:03:31.208Z,4.30
2017-08-23T03:04:31.186Z,5.40
2017-08-23T03:05:31.164Z,6.10
2017-08-23T03:06:31.138Z,4.90
2017-08-23T03:07:31.121Z,5.00
2017-08-23T03:08:31.099Z,5.80
2017-08-23T03:09:31.076Z,4.50
2017-08-23T03:10:31.053Z,4.20
2017-08-23T03:11:31.030Z,6.10
2017-08-23T03:12:31.012Z,3.80
2017-08-23T03:13:30.990Z,5.10
2017-08-23T03:14:30.965Z,22.70
2017-08-23T03:15:30.941Z,140.10
2017-08-23T03:16:30.919Z,345.90
2017-08-23T03:17:30.898Z,248.30
2017-08-23T03:18:30.880Z,191.20
2017-08-23T03:19:30.854Z,300.40
2017-08-23T03:20:30.832Z,372.90
2017-08-23T03:21:30.814Z,369.70
2017-08-23T03:22:30.810Z,315.30
2017-08-23T03:23:30.765Z,257.00
2017-08-23T03:24:30.746Z,223.10
2017-08-23T03:25:30.724Z,183.70
2017-08-23T03:26:30.699Z,198.70
2017-08-23T03:27:30.680Z,240.80
2017-08-23T03:28:30.660Z,372.40
2017-08-23T03:29:30.663Z,345.00
2017-08-23T03:30:30.614Z,491.30
2017-08-23T03:31:30.591Z,508.80
2017-08-23T03:32:30.570Z,489.10
2017-08-23T03:33:30.582Z,415.70
2017-08-23T03:34:30.525Z,356.30
2017-08-23T03:35:30.506Z,285.20
2017-08-23T03:36:30.483Z,271.30
2017-08-23T03:37:30.461Z,247.70
2017-08-23T03:38:30.441Z,224.60
2017-08-23T03:39:30.419Z,211.70
2017-08-23T03:40:30.393Z,198.20
2017-08-23T03:41:30.373Z,181.70
2017-08-23T03:42:30.354Z,176.70
2017-08-23T03:43:30.330Z,200.50
2017-08-23T03:44:30.308Z,241.50
2017-08-23T03:45:30.284Z,267.30
2017-08-23T03:46:30.265Z,264.20
2017-08-23T03:47:30.244Z,269.60
2017-08-23T03:48:30.222Z,253.00
2017-08-23T03:49:30.197Z,227.00
2017-08-23T03:50:30.185Z,233.30
2017-08-23T03:51:30.157Z,218.60
2017-08-23T03:52:30.134Z,194.70
2017-08-23T03:53:30.112Z,196.50
2017-08-23T03:54:30.086Z,213.60
2017-08-23T03:55:30.069Z,201.90
2017-08-23T03:56:30.041Z,212.20
2017-08-23T03:57:30.020Z,211.20
2017-08-23T03:58:29.999Z,218.90
2017-08-23T03:59:29.976Z,203.20
2017-08-23T04:00:29.958Z,219.10
2017-08-23T04:01:29.933Z,205.00
2017-08-23T04:02:29.915Z,226.30
2017-08-23T04:03:29.889Z,238.50
2017-08-23T04:04:29.867Z,233.60
2017-08-23T04:05:29.853Z,223.90
2017-08-23T04:06:29.829Z,217.40
2017-08-23T04:07:29.807Z,224.50
2017-08-23T04:08:29.778Z,209.50
2017-08-23T04:09:29.760Z,200.60
2017-08-23T04:10:29.735Z,212.10
2017-08-23T04:11:29.719Z,210.40
2017-08-23T04:12:29.693Z,213.50
2017-08-23T04:13:29.671Z,197.30
2017-08-23T04:14:29.648Z,202.40
2017-08-23T04:15:29.626Z,194.10
2017-08-23T04:16:29.606Z,197.10
2017-08-23T04:17:29.586Z,201.80
2017-08-23T04:18:29.559Z,202.80
2017-08-23T04:19:29.540Z,182.70
2017-08-23T04:20:29.521Z,180.60
2017-08-23T04:21:29.495Z,195.00
2017-08-23T04:22:29.473Z,179.80
2017-08-23T04:23:29.449Z,182.50
2017-08-23T04:24:29.432Z,183.10
2017-08-23T04:25:29.409Z,174.80
2017-08-23T04:26:29.384Z,166.10
2017-08-23T04:27:29.363Z,161.00
2017-08-23T04:28:29.340Z,166.40
2017-08-23T04:29:29.320Z,170.00
2017-08-23T04:30:29.295Z,168.20
2017-08-23T04:31:29.274Z,167.10
2017-08-23T04:32:29.257Z,156.80
2017-08-23T04:33:29.230Z,150.90
2017-08-23T04:34:29.209Z,160.30
2017-08-23T04:35:29.191Z,158.80
2017-08-23T04:36:29.163Z,150.30
2017-08-23T04:37:29.145Z,146.70
2017-08-23T04:38:29.126Z,152.00
2017-08-23T04:39:29.100Z,142.00
2017-08-23T04:40:29.083Z,141.80
2017-08-23T04:41:29.057Z,141.00
2017-08-23T04:42:29.035Z,135.20
2017-08-23T04:43:29.010Z,133.50
2017-08-23T04:44:28.991Z,125.00
2017-08-23T04:45:28.973Z,127.80
2017-08-23T04:46:28.947Z,127.30
2017-08-23T04:47:28.927Z,124.00
2017-08-23T04:48:28.904Z,116.80
2017-08-23T04:49:28.883Z,119.30
2017-08-23T04:50:28.859Z,126.70
2017-08-23T04:51:28.834Z,116.20
2017-08-23T04:52:28.834Z,124.90
2017-08-23T04:53:28.794Z,110.00
2017-08-23T04:54:28.773Z,119.00
2017-08-23T04:55:28.751Z,111.50
2017-08-23T04:56:28.730Z,108.20
2017-08-23T04:57:28.706Z,115.40
2017-08-23T04:58:28.685Z,109.10
2017-08-23T04:59:28.660Z,102.90
2017-08-23T05:00:28.642Z,103.10
2017-08-23T05:01:28.618Z,99.60
2017-08-23T05:02:28.598Z,101.70
2017-08-23T05:03:28.575Z,100.60
2017-08-23T05:04:28.554Z,104.00
2017-08-23T05:05:28.528Z,98.80
2017-08-23T05:06:28.505Z,90.10
2017-08-23T05:07:28.486Z,92.00
2017-08-23T05:08:28.468Z,94.30
2017-08-23T05:09:28.445Z,91.30
2017-08-23T05:10:28.420Z,94.30
2017-08-23T05:11:28.396Z,81.60
2017-08-23T05:12:28.374Z,83.10
2017-08-23T05:13:28.352Z,83.10
2017-08-23T05:14:28.330Z,81.80
2017-08-23T05:15:28.310Z,83.10
2017-08-23T05:16:28.289Z,87.10
2017-08-23T05:17:28.265Z,80.60
2017-08-23T05:18:28.248Z,80.60
2017-08-23T05:19:28.223Z,79.20
2017-08-23T05:20:28.204Z,80.20
2017-08-23T05:21:28.180Z,74.50
2017-08-23T05:22:28.156Z,79.40
2017-08-23T05:23:28.137Z,77.00
2017-08-23T05:24:28.113Z,72.70
2017-08-23T05:25:28.094Z,73.00
2017-08-23T05:26:28.073Z,70.20
2017-08-23T05:27:28.045Z,74.70
2017-08-23T05:28:28.024Z,67.60
2017-08-23T05:29:28.003Z,61.80
2017-08-23T05:30:27.980Z,66.90
2017-08-23T05:31:27.960Z,71.60
2017-08-23T05:32:27.938Z,63.10
2017-08-23T05:33:27.918Z,67.60
2017-08-23T05:34:27.897Z,63.60
2017-08-23T05:35:27.872Z,61.40
2017-08-23T05:36:27.850Z,60.90
2017-08-23T05:37:27.831Z,63.90
2017-08-23T05:38:27.807Z,60.10
2017-08-23T05:39:27.791Z,60.40
2017-08-23T05:40:27.767Z,59.50
2017-08-23T05:41:27.740Z,55.80
2017-08-23T05:42:27.716Z,57.60
2017-08-23T05:43:27.697Z,61.10
2017-08-23T05:44:27.676Z,54.80
2017-08-23T05:45:27.652Z,58.20
2017-08-23T05:46:27.630Z,56.50
2017-08-23T05:47:27.610Z,55.00
2017-08-23T05:48:27.587Z,55.60
2017-08-23T05:49:27.567Z,52.60
2017-08-23T05:50:27.538Z,51.70
2017-08-23T05:51:27.527Z,50.10
2017-08-23T05:52:27.500Z,56.60
2017-08-23T05:53:27.477Z,54.00
2017-08-23T05:54:27.451Z,49.10
2017-08-23T05:55:27.432Z,47.70
2017-08-23T05:56:27.413Z,50.10
2017-08-23T05:57:27.390Z,48.40
2017-08-23T05:58:27.372Z,51.90
2017-08-23T05:59:27.342Z,43.20
2017-08-23T06:00:27.321Z,41.40
2017-08-23T06:01:27.298Z,40.50
2017-08-23T06:02:27.281Z,37.90
2017-08-23T06:03:27.255Z,37.40
2017-08-23T06:04:27.232Z,36.00
2017-08-23T06:05:27.214Z,38.70
2017-08-23T06:06:27.192Z,35.30
2017-08-23T06:07:27.166Z,32.60
2017-08-23T06:08:27.148Z,35.30
2017-08-23T06:09:27.123Z,35.30
2017-08-23T06:10:27.105Z,33.90
2017-08-23T06:11:27.086Z,35.10
2017-08-23T06:12:27.061Z,33.10
2017-08-23T06:13:27.037Z,34.10
2017-08-23T06:14:27.011Z,30.10
2017-08-23T06:15:26.991Z,34.70
2017-08-23T06:16:26.971Z,49.00
2017-08-23T06:17:26.949Z,69.10
2017-08-23T06:18:26.930Z,66.50
2017-08-23T06:19:26.905Z,63.70
2017-08-23T06:20:26.883Z,70.30
2017-08-23T06:21:26.861Z,79.90
2017-08-23T06:22:26.838Z,100.50
2017-08-23T06:23:26.818Z,124.60
2017-08-23T06:24:26.795Z,156.70
2017-08-23T06:25:26.772Z,118.90
2017-08-23T06:26:26.750Z,156.40
2017-08-23T06:27:26.731Z,369.60
2017-08-23T06:28:26.709Z,440.00
2017-08-23T06:29:26.686Z,465.30
2017-08-23T06:30:26.669Z,446.90
2017-08-23T06:31:26.639Z,393.90
2017-08-23T06:32:26.620Z,316.30
2017-08-23T06:33:26.595Z,340.90
2017-08-23T06:34:26.575Z,432.60
2017-08-23T06:35:26.556Z,445.80
2017-08-23T06:36:26.534Z,450.30
2017-08-23T06:37:26.512Z,439.50
2017-08-23T06:38:26.490Z,442.40
2017-08-23T06:39:26.464Z,434.90
2017-08-23T06:40:59.650Z,450.30
2017-08-23T06:41:26.421Z,423.10
2017-08-23T06:42:26.400Z,415.60
2017-08-23T06:43:26.377Z,387.60
2017-08-23T06:44:26.355Z,391.10
2017-08-23T06:45:26.338Z,359.70
2017-08-23T06:46:26.315Z,376.10
2017-08-23T06:47:26.290Z,370.90
2017-08-23T06:48:26.268Z,366.50
2017-08-23T06:49:26.250Z,339.30
2017-08-23T06:50:26.226Z,364.50
2017-08-23T06:51:26.206Z,330.00
2017-08-23T06:52:26.180Z,358.60
2017-08-23T06:53:26.165Z,335.10
2017-08-23T06:54:26.140Z,334.80
2017-08-23T06:55:26.119Z,322.80
2017-08-23T06:56:26.092Z,348.20
2017-08-23T06:57:26.079Z,338.70
2017-08-23T06:58:26.051Z,327.00
2017-08-23T06:59:26.031Z,333.00
2017-08-23T07:00:26.010Z,339.20
2017-08-23T07:01:25.985Z,321.10
2017-08-23T07:02:25.966Z,318.00
2017-08-23T07:03:25.945Z,320.90
2017-08-23T07:04:25.923Z,307.90
2017-08-23T07:05:25.898Z,304.80
2017-08-23T07:06:25.876Z,280.00
2017-08-23T07:07:25.857Z,308.10
2017-08-23T07:08:25.831Z,301.00
2017-08-23T07:09:25.813Z,293.50
2017-08-23T07:10:25.788Z,283.50
2017-08-23T07:11:25.766Z,292.00
2017-08-23T07:12:25.746Z,291.70
2017-08-23T07:13:25.722Z,278.90
2017-08-23T07:14:25.703Z,286.00
2017-08-23T07:15:25.679Z,284.90
2017-08-23T07:16:25.657Z,274.00
2017-08-23T07:17:25.637Z,280.20
2017-08-23T07:18:25.611Z,268.40
2017-08-23T07:19:25.594Z,277.30
2017-08-23T07:20:25.571Z,276.30
2017-08-23T07:21:25.550Z,257.30
2017-08-23T07:22:25.540Z,266.20
2017-08-23T07:23:25.504Z,271.40
2017-08-23T07:24:25.484Z,252.60
2017-08-23T07:25:25.464Z,267.10
2017-08-23T07:26:25.438Z,254.90
2017-08-23T07:27:25.415Z,254.70
2017-08-23T07:28:25.394Z,265.40
2017-08-23T07:29:25.378Z,255.70
2017-08-23T07:30:25.350Z,250.20
2017-08-23T07:31:25.332Z,249.90
2017-08-23T07:32:25.307Z,240.70
2017-08-23T07:33:25.285Z,249.80
2017-08-23T07:34:25.264Z,237.80
2017-08-23T07:35:25.250Z,242.40
2017-08-23T07:36:25.221Z,231.80
2017-08-23T07:37:25.199Z,247.30
2017-08-23T07:38:25.182Z,231.60
2017-08-23T07:39:25.156Z,237.50
2017-08-23T07:40:25.135Z,237.10
2017-08-23T07:41:25.112Z,243.80
2017-08-23T07:42:25.094Z,233.30
2017-08-23T07:43:25.073Z,230.80
2017-08-23T07:44:25.048Z,223.40
2017-08-23T07:45:25.029Z,225.10
2017-08-23T07:46:25.005Z,221.70
2017-08-23T07:47:24.987Z,231.80
2017-08-23T07:48:24.961Z,228.50
2017-08-23T07:49:24.941Z,225.40
2017-08-23T07:50:24.921Z,223.20
2017-08-23T07:51:24.901Z,221.50
2017-08-23T07:52:24.880Z,230.70
2017-08-23T07:53:24.854Z,208.90
2017-08-23T07:54:24.836Z,224.10
2017-08-23T07:55:24.813Z,207.20
2017-08-23T07:56:24.792Z,210.70
2017-08-23T07:57:24.770Z,214.20
2017-08-23T07:58:24.747Z,226.40
2017-08-23T07:59:24.724Z,209.20
2017-08-23T08:00:24.708Z,211.60
2017-08-23T08:01:24.687Z,214.70
2017-08-23T08:02:24.661Z,211.30
2017-08-23T08:03:24.643Z,217.10
2017-08-23T08:04:24.621Z,217.60
2017-08-23T08:05:24.597Z,212.10
2017-08-23T08:06:24.578Z,208.30
2017-08-23T08:07:24.579Z,210.30
2017-08-23T08:08:24.536Z,214.70
2017-08-23T08:09:24.513Z,219.60
2017-08-23T08:10:24.488Z,205.80
2017-08-23T08:11:24.465Z,206.70
2017-08-23T08:12:24.447Z,208.80
2017-08-23T08:13:24.425Z,198.10
2017-08-23T08:14:24.405Z,196.10
2017-08-23T08:15:24.385Z,199.40
2017-08-23T08:16:24.364Z,214.60
2017-08-23T08:17:24.342Z,187.90
2017-08-23T08:18:24.320Z,189.30
2017-08-23T08:19:24.296Z,198.10
2017-08-23T08:20:24.279Z,197.10
2017-08-23T08:21:24.257Z,195.10
2017-08-23T08:22:24.235Z,186.90
2017-08-23T08:23:24.214Z,186.50
2017-08-23T08:24:24.192Z,190.30
2017-08-23T08:25:24.171Z,198.10
2017-08-23T08:26:24.149Z,192.70
2017-08-23T08:27:24.124Z,187.10
2017-08-23T08:28:24.113Z,189.50
2017-08-23T08:29:24.084Z,197.20
2017-08-23T08:30:24.060Z,179.70
2017-08-23T08:31:24.039Z,188.20
2017-08-23T08:32:24.021Z,187.00
2017-08-23T08:33:23.998Z,186.30
2017-08-23T08:34:23.977Z,181.60
2017-08-23T08:35:23.954Z,191.40
2017-08-23T08:36:23.934Z,171.80
2017-08-23T08:37:23.909Z,181.90
2017-08-23T08:38:23.887Z,183.20
2017-08-23T08:39:23.871Z,175.20
2017-08-23T08:40:23.850Z,182.20
2017-08-23T08:41:23.827Z,171.90
2017-08-23T08:42:23.805Z,180.30
2017-08-23T08:43:23.781Z,173.90
2017-08-23T08:44:23.760Z,170.00
2017-08-23T08:45:23.740Z,181.50
2017-08-23T08:46:23.717Z,179.40
2017-08-23T08:47:23.699Z,176.90
2017-08-23T08:48:23.675Z,170.20
2017-08-23T08:49:23.657Z,168.10
2017-08-23T08:50:23.631Z,172.30
2017-08-23T08:51:23.614Z,174.90
2017-08-23T08:52:23.593Z,168.20
2017-08-23T08:53:23.569Z,167.00
2017-08-23T08:54:23.545Z,172.00
2017-08-23T08:55:23.530Z,168.20
2017-08-23T08:56:23.503Z,164.50
2017-08-23T08:57:23.481Z,169.00
2017-08-23T08:58:23.461Z,165.80
2017-08-23T08:59:23.442Z,166.70
2017-08-23T09:00:23.417Z,154.60
2017-08-23T09:01:23.397Z,156.70
2017-08-23T09:02:23.374Z,160.10
2017-08-23T09:03:23.355Z,159.50
2017-08-23T09:04:23.331Z,164.30
2017-08-23T09:05:23.313Z,158.70
2017-08-23T09:06:23.293Z,152.40
2017-08-23T09:07:23.271Z,166.80
2017-08-23T09:08:23.250Z,152.20
2017-08-23T09:09:23.226Z,157.40
2017-08-23T09:10:23.204Z,154.50
2017-08-23T09:11:23.180Z,154.20
2017-08-23T09:12:23.162Z,151.60
2017-08-23T09:13:23.145Z,154.20
2017-08-23T09:14:23.116Z,144.40
2017-08-23T09:15:23.097Z,161.30
2017-08-23T09:16:23.075Z,151.70
2017-08-23T09:17:23.057Z,154.40
2017-08-23T09:18:23.032Z,153.50
2017-08-23T09:19:23.012Z,150.90
2017-08-23T09:20:22.991Z,147.20
2017-08-23T09:21:22.968Z,146.60
2017-08-23T09:22:22.945Z,146.00
2017-08-23T09:23:22.924Z,151.10
2017-08-23T09:24:22.905Z,150.50
2017-08-23T09:25:22.886Z,149.80
2017-08-23T09:26:22.864Z,148.80
2017-08-23T09:27:22.841Z,150.80
2017-08-23T09:28:22.820Z,149.60
2017-08-23T09:29:22.800Z,148.30
2017-08-23T09:30:22.776Z,136.50
2017-08-23T09:31:22.761Z,142.90
2017-08-23T09:32:22.736Z,139.80
2017-08-23T09:33:22.711Z,148.50
2017-08-23T09:34:22.693Z,146.20
2017-08-23T09:35:22.673Z,138.80
2017-08-23T09:36:22.646Z,142.30
2017-08-23T09:37:22.627Z,138.50
2017-08-23T09:38:22.604Z,142.90
2017-08-23T09:39:22.587Z,139.90
2017-08-23T09:40:22.562Z,141.60
2017-08-23T09:41:22.540Z,139.40
2017-08-23T09:42:22.518Z,136.80
2017-08-23T09:43:22.497Z,130.20
2017-08-23T09:44:22.478Z,132.50
2017-08-23T09:45:22.459Z,138.80
2017-08-23T09:46:22.435Z,137.90
2017-08-23T09:47:22.414Z,138.20
2017-08-23T09:48:22.391Z,130.80
2017-08-23T09:49:22.373Z,133.70
2017-08-23T09:50:22.351Z,134.50
2017-08-23T09:51:22.327Z,132.90
2017-08-23T09:52:22.310Z,137.90
2017-08-23T09:53:22.287Z,131.70
2017-08-23T09:54:22.263Z,136.80
2017-08-23T09:55:22.246Z,137.20
2017-08-23T09:56:22.225Z,135.80
2017-08-23T09:57:22.201Z,131.60
2017-08-23T09:58:22.177Z,134.70
2017-08-23T09:59:22.159Z,136.40
2017-08-23T10:00:22.156Z,130.60
2017-08-23T10:01:22.114Z,130.60
2017-08-23T10:02:22.092Z,130.80
2017-08-23T10:03:22.075Z,131.90
2017-08-23T10:04:22.056Z,121.80
2017-08-23T10:05:22.030Z,128.60
2017-08-23T10:06:22.009Z,129.00
2017-08-23T10:07:21.985Z,127.50
2017-08-23T10:08:21.964Z,126.20
2017-08-23T10:09:21.949Z,132.20
2017-08-23T10:10:21.926Z,125.40
2017-08-23T10:11:21.901Z,124.50
2017-08-23T10:12:21.884Z,119.60
2017-08-23T10:13:21.861Z,121.70
2017-08-23T10:14:21.836Z,120.60
2017-08-23T10:15:21.817Z,128.30
2017-08-23T10:16:21.794Z,125.90
2017-08-23T10:17:21.778Z,114.30
2017-08-23T10:18:21.750Z,117.80
2017-08-23T10:19:21.733Z,121.70
2017-08-23T10:20:21.710Z,123.30
2017-08-23T10:21:21.691Z,125.90
2017-08-23T10:22:21.669Z,120.70
2017-08-23T10:23:21.648Z,120.80
2017-08-23T10:24:21.624Z,114.30
2017-08-23T10:25:21.604Z,115.10
2017-08-23T10:26:21.583Z,112.70
2017-08-23T10:27:21.564Z,113.50
2017-08-23T10:28:21.537Z,114.90
2017-08-23T10:29:21.520Z,114.60
2017-08-23T10:30:21.506Z,114.70
2017-08-23T10:31:21.474Z,116.00
2017-08-23T10:32:21.458Z,111.40
2017-08-23T10:33:21.435Z,116.00
2017-08-23T10:34:21.415Z,118.50
2017-08-23T10:35:21.394Z,117.00
2017-08-23T10:36:21.374Z,115.70
2017-08-23T10:37:21.347Z,106.10
2017-08-23T10:38:21.330Z,118.80
2017-08-23T10:39:21.307Z,115.90
2017-08-23T10:40:21.283Z,111.60
2017-08-23T10:41:21.262Z,107.20
2017-08-23T10:42:21.244Z,111.60
2017-08-23T10:43:21.222Z,114.10
2017-08-23T10:44:21.203Z,113.60
2017-08-23T10:45:21.181Z,112.10
2017-08-23T10:46:21.157Z,112.50
2017-08-23T10:47:21.136Z,112.30
2017-08-23T10:48:21.114Z,110.70
2017-08-23T10:49:21.094Z,101.20
2017-08-23T10:50:21.070Z,105.70
2017-08-23T10:51:21.062Z,105.10
2017-08-23T10:52:21.032Z,106.70
2017-08-23T10:53:21.006Z,108.30
2017-08-23T10:54:20.987Z,112.20
2017-08-23T10:55:20.964Z,109.00
2017-08-23T10:56:20.945Z,106.80
2017-08-23T10:57:20.928Z,103.80
2017-08-23T10:58:20.898Z,106.40
2017-08-23T10:59:20.880Z,105.30
2017-08-23T11:00:20.862Z,107.40
2017-08-23T11:01:20.837Z,99.90
2017-08-23T11:02:20.816Z,104.90
2017-08-23T11:03:20.799Z,104.50
2017-08-23T11:04:20.779Z,102.50
2017-08-23T11:05:20.752Z,102.30
2017-08-23T11:06:20.730Z,103.20
2017-08-23T11:07:20.709Z,101.40
2017-08-23T11:08:20.687Z,102.60
2017-08-23T11:09:20.668Z,101.70
2017-08-23T11:10:20.646Z,103.00
2017-08-23T11:11:20.633Z,100.60
2017-08-23T11:12:20.603Z,95.70
2017-08-23T11:13:20.580Z,96.20
2017-08-23T11:14:20.560Z,99.10
2017-08-23T11:15:20.540Z,99.80
2017-08-23T11:16:20.517Z,95.60
2017-08-23T11:17:20.496Z,96.80
2017-08-23T11:18:20.472Z,102.00
2017-08-23T11:19:20.451Z,99.50
2017-08-23T11:20:20.431Z,102.70
2017-08-23T11:21:20.409Z,98.10
2017-08-23T11:22:20.392Z,92.30
2017-08-23T11:23:20.366Z,100.30
2017-08-23T11:24:20.347Z,96.60
2017-08-23T11:25:20.325Z,96.40
2017-08-23T11:26:20.305Z,100.80
2017-08-23T11:27:20.283Z,94.90
2017-08-23T11:28:20.262Z,95.70
2017-08-23T11:29:20.241Z,91.40
2017-08-23T11:30:20.218Z,93.30
2017-08-23T11:31:20.194Z,94.60
2017-08-23T11:32:20.174Z,94.10
2017-08-23T11:33:20.157Z,91.00
2017-08-23T11:34:20.135Z,85.00
2017-08-23T11:35:20.112Z,88.40
2017-08-23T11:36:20.090Z,90.90
2017-08-23T11:37:20.067Z,87.90
2017-08-23T11:38:20.049Z,94.40
2017-08-23T11:39:20.025Z,94.10
2017-08-23T11:40:20.003Z,93.20
2017-08-23T11:41:19.982Z,91.30
2017-08-23T11:42:19.964Z,92.00
2017-08-23T11:43:19.940Z,89.60
2017-08-23T11:44:19.919Z,87.80
2017-08-23T11:45:19.901Z,96.90
2017-08-23T11:46:19.881Z,88.50
2017-08-23T11:47:19.857Z,90.20
2017-08-23T11:48:19.831Z,89.00
2017-08-23T11:49:19.812Z,89.70
2017-08-23T11:50:20.014Z,87.50
2017-08-23T11:51:19.991Z,85.70
2017-08-23T11:52:19.748Z,89.60
2017-08-23T11:53:19.726Z,86.10
2017-08-23T11:54:19.708Z,89.00
2017-08-23T11:55:19.683Z,87.30
2017-08-23T11:56:19.664Z,85.00
2017-08-23T11:57:19.657Z,89.20
2017-08-23T11:58:19.621Z,83.80
2017-08-23T11:59:19.616Z,90.30
2017-08-23T12:00:19.572Z,87.40
2017-08-23T12:01:19.552Z,86.40
2017-08-23T12:02:19.584Z,89.00
2017-08-23T12:03:19.512Z,87.20
2017-08-23T12:04:19.489Z,80.80
2017-08-23T12:05:19.469Z,88.90
2017-08-23T12:06:19.452Z,84.90
2017-08-23T12:07:19.422Z,86.20
2017-08-23T12:08:19.405Z,87.00
2017-08-23T12:09:19.380Z,86.60
2017-08-23T12:10:19.357Z,83.80
2017-08-23T12:11:19.337Z,86.90
2017-08-23T12:12:19.315Z,81.30
2017-08-23T12:13:19.296Z,87.00
2017-08-23T12:14:19.277Z,81.10
2017-08-23T12:15:19.252Z,83.90
2017-08-23T12:16:19.235Z,82.40
2017-08-23T12:17:19.214Z,88.60
2017-08-23T12:18:19.186Z,77.20
2017-08-23T12:19:19.165Z,89.10
2017-08-23T12:20:19.149Z,79.90
2017-08-23T12:21:19.124Z,80.00
2017-08-23T12:22:19.102Z,82.30
2017-08-23T12:23:19.081Z,82.50
2017-08-23T12:24:19.061Z,76.00
2017-08-23T12:25:19.039Z,77.70
2017-08-23T12:26:19.017Z,84.90
2017-08-23T12:27:18.997Z,79.70
2017-08-23T12:28:18.974Z,84.20
2017-08-23T12:29:18.953Z,79.80
2017-08-23T12:30:18.933Z,81.50
2017-08-23T12:31:18.909Z,78.30
2017-08-23T12:32:18.889Z,78.90
2017-08-23T12:33:18.872Z,74.60
2017-08-23T12:34:18.847Z,75.60
2017-08-23T12:35:18.829Z,81.40
2017-08-23T12:36:18.807Z,79.70
2017-08-23T12:37:18.786Z,74.50
2017-08-23T12:38:18.762Z,74.90
2017-08-23T12:39:18.743Z,74.20
2017-08-23T12:40:18.718Z,76.70
2017-08-23T12:41:18.701Z,73.40
2017-08-23T12:42:18.679Z,75.50
2017-08-23T12:43:18.655Z,74.40
2017-08-23T12:44:18.637Z,67.70
2017-08-23T12:45:18.617Z,70.20